Time;durP1;ratioP1;P1;durP2;ratioP2;P2;SDS_P1;SDS_P2;PMS_P1;PMS_P2;Temp;Humidity;BMP_temperature;BMP_pressure;BME280_temperature;BME280_humidity;BME280_pressure;Samples;Min_cycle;Max_cycle;Signal;HPM_P1;HPM_P2
2022/12/14 00:01:42;;;;;;;18.23;13.35;;;;;;;-5.72;65.95;98158.31;5115110;28;20075;-71
2022/12/14 00:04:11;;;;;;;18.70;13.40;;;;;;;-3.26;66.07;98490.81;5098432;28;20074;-72
2022/12/14 00:06:42;;;;;;;22.05;14.52;;;;;;;-10.36;65.60;97304.81;5114814;28;20064;-73
2022/12/14 00:09:09;;;;;;;17.92;13.93;;;;;;;-3.31;66.39;98492.59;5114869;28;20109;-72
2022/12/14 00:11:36;;;;;;;20.95;14.25;;;;;;;-3.31;66.04;98492.59;5114379;28;20051;-72
2022/12/14 00:14:05;;;;;;;18.20;13.75;;;;;;;-9.30;65.98;97681.97;5114845;28;20123;-73
2022/12/14 00:16:34;;;;;;;19.83;14.60;;;;;;;-3.36;66.77;98477.13;5114434;28;20032;-72
2022/12/14 00:19:03;;;;;;;18.95;13.75;;;;;;;-13.41;65.63;96874.13;5115454;28;20036;-72
2022/12/14 00:21:30;;;;;;;20.83;14.57;;;;;;;-3.38;67.11;98465.06;5113947;28;20234;-72
2022/12/14 00:23:59;;;;;;;19.10;14.38;;;;;;;-6.70;66.79;98204.53;5114555;28;20040;-72
2022/12/14 00:26:27;;;;;;;22.48;16.70;;;;;;;-3.42;66.84;98458.22;5113637;28;20112;-73
2022/12/14 00:28:55;;;;;;;20.85;15.05;;;;;;;-11.44;66.09;97095.56;5113858;28;20066;-72
2022/12/14 00:31:25;;;;;;;20.73;15.63;;;;;;;-6.44;66.52;97952.63;5113288;28;20044;-72
2022/12/14 00:33:54;;;;;;;19.98;12.88;;;;;;;-11.31;66.25;97152.63;5113372;28;20046;-71
2022/12/14 00:36:22;;;;;;;19.38;13.90;;;;;;;-3.45;66.60;98512.66;5114227;28;20340;-70
2022/12/14 00:38:51;;;;;;;21.77;14.50;;;;;;;-3.45;67.22;98461.72;5096975;28;20036;-72
2022/12/14 00:41:18;;;;;;;20.35;15.27;;;;;;;-3.46;67.83;98465.19;5114232;28;20040;-73
2022/12/14 00:43:45;;;;;;;20.75;14.40;;;;;;;-3.49;67.39;98475.56;5113386;28;20066;-72
2022/12/14 00:46:13;;;;;;;19.33;13.98;;;;;;;-11.24;66.88;97179.88;5113846;28;20046;-73
2022/12/14 00:48:41;;;;;;;23.20;15.13;;;;;;;-3.53;67.85;98468.72;5113142;28;20113;-72
2022/12/14 00:51:09;;;;;;;20.65;14.45;;;;;;;-11.28;67.20;97239.56;5095925;28;20255;-73
2022/12/14 00:53:39;;;;;;;19.67;15.52;;;;;;;-11.29;67.78;97171.38;5112692;28;20085;-72
2022/12/14 00:56:08;;;;;;;19.67;13.90;;;;;;;-14.18;67.36;96684.09;5113424;28;20044;-72
2022/12/14 00:58:35;;;;;;;19.05;14.02;;;;;;;-3.55;68.19;98473.06;5112409;28;20040;-72
2022/12/14 01:01:06;;;;;;;20.13;14.95;;;;;;;-3.59;68.17;98468.78;5112418;28;20050;-72
2022/12/14 01:03:36;;;;;;;20.45;15.18;;;;;;;-10.20;67.97;97354.25;5112532;28;20035;-70
2022/12/14 01:06:04;;;;;;;20.45;15.00;;;;;;;-3.62;68.30;98459.31;5112692;28;20048;-72
2022/12/14 01:08:35;;;;;;;19.67;14.93;;;;;;;-3.63;68.58;98455.00;5112016;28;20061;-72
2022/12/14 01:11:07;;;;;;;18.80;13.52;;;;;;;-5.57;68.88;98116.84;5111804;28;20039;-72
2022/12/14 01:13:35;;;;;;;21.60;14.25;;;;;;;-3.64;68.40;98440.34;5111982;28;20048;-72
2022/12/14 01:16:03;;;;;;;20.00;14.02;;;;;;;-3.64;68.90;98448.09;5112390;28;20033;-73
2022/12/14 01:18:33;;;;;;;19.80;13.40;;;;;;;-8.61;68.28;97618.31;5112046;28;20081;-72
2022/12/14 01:21:15;;;;;;;21.23;13.73;;;;;;;-3.66;69.52;98628.56;5111650;28;20040;-72
2022/12/14 01:23:51;;;;;;;20.10;13.60;;;;;;;-11.70;68.90;97450.88;5112336;28;20319;-72
2022/12/14 01:26:29;;;;;;;20.13;14.25;;;;;;;-11.50;69.21;97137.34;5112079;28;20067;-72
2022/12/14 01:28:59;;;;;;;19.83;14.45;;;;;;;-3.71;69.17;98443.03;5111905;28;20036;-72
2022/12/14 01:31:33;;;;;;;22.30;14.15;;;;;;;-8.01;68.42;97822.63;5112531;28;20103;-72
2022/12/14 01:34:00;;;;;;;20.48;13.98;;;;;;;-7.37;68.72;97873.66;5113085;28;20042;-72
2022/12/14 01:36:29;;;;;;;20.35;12.80;;;;;;;-6.56;68.98;97963.91;5111672;28;20323;-72
2022/12/14 01:39:00;;;;;;;18.85;13.20;;;;;;;-5.76;69.49;98092.13;5111264;28;20052;-72
2022/12/14 01:41:30;;;;;;;17.38;13.48;;;;;;;-3.64;69.21;98442.06;5112046;28;20051;-71
2022/12/14 01:44:00;;;;;;;21.10;14.82;;;;;;;-7.14;69.09;97855.44;5111040;28;20081;-72
2022/12/14 01:46:31;;;;;;;20.75;14.40;;;;;;;-9.48;69.27;97547.81;5112048;28;20089;-72
2022/12/14 01:49:11;;;;;;;21.92;15.10;;;;;;;-6.13;69.86;98055.50;5111337;28;20040;-72
2022/12/14 01:51:40;;;;;;;20.83;13.25;;;;;;;-7.70;68.89;98084.81;5111591;28;20074;-71
2022/12/14 01:54:12;;;;;;;21.27;13.98;;;;;;;-3.51;70.21;98425.53;5111457;28;20093;-72
2022/12/14 01:56:45;;;;;;;22.15;14.27;;;;;;;-13.07;68.70;97100.97;5110932;28;20097;-72
2022/12/14 01:59:18;;;;;;;21.15;13.93;;;;;;;-3.50;69.63;98428.97;5110464;28;20054;-72
2022/12/14 02:01:47;;;;;;;21.98;13.82;;;;;;;-3.48;70.78;98491.97;5111020;28;20063;-73
2022/12/14 02:04:20;;;;;;;21.40;14.27;;;;;;;-6.38;69.72;97926.78;5111053;28;20100;-72
2022/12/14 02:06:50;;;;;;;20.15;14.73;;;;;;;-3.47;69.94;98400.44;5111874;28;20048;-72
2022/12/14 02:09:24;;;;;;;21.10;13.75;;;;;;;-4.93;69.87;98141.94;5111095;28;20040;-72
2022/12/14 02:11:56;;;;;;;21.10;13.93;;;;;;;-11.12;70.38;97095.38;5111243;28;20059;-72
2022/12/14 02:14:27;;;;;;;23.42;15.15;;;;;;;-11.27;69.59;97059.72;5109812;28;20584;-73
2022/12/14 02:16:56;;;;;;;21.45;13.52;;;;;;;-6.19;70.31;98139.78;5110643;28;20052;-72
2022/12/14 02:19:24;;;;;;;20.83;14.43;;;;;;;-3.45;70.13;98388.31;5110409;28;20239;-72
2022/12/14 02:22:16;;;;;;;22.00;15.02;;;;;;;-3.87;71.29;98349.16;5110811;28;20036;-72
2022/12/14 02:25:27;;;;;;;18.98;13.80;;;;;;;-3.41;71.05;98367.53;5110666;28;20036;-72
2022/12/14 02:28:26;;;;;;;18.92;13.13;;;;;;;-3.76;71.43;98292.06;5109782;28;20058;-72
2022/12/14 02:31:06;;;;;;;19.70;14.05;;;;;;;-3.37;70.31;98355.38;5110945;28;20052;-71
2022/12/14 02:33:43;;;;;;;19.10;14.82;;;;;;;-4.84;70.84;98108.22;5110359;28;20036;-71
2022/12/14 02:36:17;;;;;;;20.30;13.32;;;;;;;-3.35;70.17;98344.09;5110108;28;20071;-72
2022/12/14 02:38:57;;;;;;;18.25;13.93;;;;;;;-3.31;69.71;98352.69;5110696;28;20223;-71
2022/12/14 02:41:37;;;;;;;18.13;12.90;;;;;;;-3.33;70.19;98360.47;5111073;28;20304;-72
2022/12/14 02:44:18;;;;;;;18.52;12.23;;;;;;;-7.94;70.02;97694.88;5111313;28;20318;-73
2022/12/14 02:46:55;;;;;;;18.08;13.07;;;;;;;-3.29;71.03;98351.78;5110469;28;20044;-72
2022/12/14 02:49:42;;;;;;;21.77;15.07;;;;;;;-3.31;70.95;98353.53;5110167;28;20111;-72
2022/12/14 02:52:20;;;;;;;20.60;13.10;;;;;;;-12.94;69.79;96803.50;5110889;28;20300;-73
2022/12/14 02:54:54;;;;;;;18.10;13.75;;;;;;;-10.74;70.02;97097.69;5109687;28;20371;-72
2022/12/14 02:57:26;;;;;;;17.58;12.88;;;;;;;-3.30;70.58;98344.03;5109038;28;20035;-72
2022/12/14 03:02:48;;;;;;;20.40;14.38;;;;;;;-6.50;70.55;97798.03;5110080;28;20117;-72
2022/12/14 03:05:15;;;;;;;20.63;13.98;;;;;;;-3.28;70.09;98340.53;5110170;28;20040;-73
2022/12/14 03:07:48;;;;;;;19.65;13.63;;;;;;;-3.28;70.36;98414.84;5110929;28;20044;-73
2022/12/14 03:10:23;;;;;;;21.08;14.68;;;;;;;-12.26;69.96;97283.06;5111170;28;20044;-73
2022/12/14 03:12:53;;;;;;;;;;;;;;;-3.29;72.38;98356.97;5111741;28;20044;-72
2022/12/14 03:15:24;;;;;;;19.05;12.88;;;;;;;-3.28;70.87;98348.31;5111753;28;19916;-72
2022/12/14 03:18:00;;;;;;;19.65;13.75;;;;;;;-7.87;71.23;97570.53;5112456;28;20066;-73
2022/12/14 03:20:30;;;;;;;20.42;13.50;;;;;;;-5.98;70.21;97883.38;5112062;28;20043;-72
2022/12/14 03:23:06;;;;;;;20.55;13.55;;;;;;;-15.40;69.25;96369.03;5112049;28;20039;-72
2022/12/14 03:25:40;;;;;;;19.92;13.05;;;;;;;-3.18;70.04;98314.47;5112259;28;20048;-73
2022/12/14 03:28:13;;;;;;;19.13;14.63;;;;;;;-3.15;70.55;98402.53;5115135;28;20059;-72
2022/12/14 03:30:43;;;;;;;18.42;12.57;;;;;;;-3.14;69.76;98322.16;5115613;28;20035;-72
2022/12/14 03:33:17;;;;;;;22.45;15.45;;;;;;;-7.15;70.29;97652.91;5115575;28;20035;-72
2022/12/14 03:35:50;;;;;;;22.40;13.10;;;;;;;-3.11;69.87;98303.97;5115510;28;20040;-72
2022/12/14 03:38:24;;;;;;;18.88;14.32;;;;;;;-10.83;70.11;97010.75;5098775;28;20040;-72
2022/12/14 03:40:59;;;;;;;19.27;14.27;;;;;;;-5.06;69.95;97970.72;5114629;28;20048;-72
2022/12/14 03:43:37;;;;;;;17.88;13.95;;;;;;;-3.07;69.91;98305.63;5113873;28;20056;-72
2022/12/14 03:46:12;;;;;;;19.77;13.65;;;;;;;-10.83;69.79;96996.25;5113811;28;20062;-72
2022/12/14 03:48:47;;;;;;;19.83;13.70;;;;;;;-19.85;69.13;95679.75;5114027;28;20041;-72
2022/12/14 03:51:22;;;;;;;20.70;14.25;;;;;;;-12.30;69.46;96745.28;5114697;28;20086;-72
2022/12/14 03:53:55;;;;;;;18.63;15.10;;;;;;;-3.82;70.02;98160.97;5114590;28;20187;-73
2022/12/14 03:56:31;;;;;;;19.75;14.65;;;;;;;-3.08;70.21;98285.78;5114737;28;20043;-72
2022/12/14 03:59:03;;;;;;;21.95;15.57;;;;;;;-13.28;70.02;96640.50;5115751;28;20036;-72
2022/12/14 04:01:42;;;;;;;19.00;13.88;;;;;;;-3.10;70.36;98287.53;5115528;28;20055;-72
2022/12/14 04:04:16;;;;;;;22.02;14.57;;;;;;;-23.29;68.96;95237.94;5115057;28;20047;-74
2022/12/14 04:06:51;;;;;;;24.33;15.85;;;;;;;-3.75;70.10;98413.72;5114629;28;20035;-72
2022/12/14 04:09:30;;;;;;;24.38;16.30;;;;;;;-6.76;70.98;97666.13;5113617;28;20032;-72
2022/12/14 04:20:42;;;;;;;24.00;14.40;;;;;;;-3.07;71.13;98251.19;5115653;28;20051;-74
2022/12/14 04:23:15;;;;;;;18.80;13.93;;;;;;;-3.05;70.82;98239.06;5098531;28;20059;-73
2022/12/14 04:26:03;;;;;;;21.00;14.13;;;;;;;-3.01;71.00;98232.09;5115670;28;20071;-72
2022/12/14 04:31:25;;;;;;;20.92;15.05;;;;;;;-7.71;70.36;97464.03;5114551;28;20068;-72
2022/12/14 04:33:57;;;;;;;21.85;14.38;;;;;;;-10.67;70.57;96950.03;5114186;28;20044;-72
2022/12/14 04:36:37;;;;;;;23.15;14.63;;;;;;;-3.42;71.08;98157.72;5113179;28;20042;-72
2022/12/14 04:39:06;;;;;;;20.15;14.63;;;;;;;-9.66;70.13;97108.63;5114165;28;20181;-73
2022/12/14 04:41:37;;;;;;;21.50;14.65;;;;;;;-10.53;70.33;96956.72;5114312;28;20028;-72
2022/12/14 04:44:09;;;;;;;22.08;15.40;;;;;;;-2.85;70.86;98237.84;5115087;28;20107;-71
2022/12/14 04:46:39;;;;;;;18.45;13.32;;;;;;;-2.84;71.29;98221.41;5114460;28;20298;-72
2022/12/14 04:49:17;;;;;;;25.05;15.88;;;;;;;-2.85;71.51;98217.09;5114963;28;20238;-72
2022/12/14 04:51:52;;;;;;;21.27;14.30;;;;;;;-5.35;71.19;98138.13;5114406;28;20051;-72
2022/12/14 04:54:25;;;;;;;20.33;14.93;;;;;;;-2.82;71.19;98235.19;5114084;28;20044;-73
2022/12/14 04:56:59;;;;;;;21.63;16.42;;;;;;;-6.05;71.38;98027.91;5114742;28;20048;-72
2022/12/14 04:59:27;;;;;;;20.33;15.02;;;;;;;-5.01;70.65;97924.13;5114097;28;20039;-71
2022/12/14 05:02:06;;;;;;;23.77;16.17;;;;;;;-13.43;70.72;96411.28;5114628;28;20047;-72
2022/12/14 05:04:53;;;;;;;25.48;15.85;;;;;;;-4.84;71.62;97838.56;5113398;28;20048;-71
2022/12/14 05:07:34;;;;;;;21.15;15.45;;;;;;;-2.73;71.37;98180.53;5114051;28;20047;-72
2022/12/14 05:10:06;;;;;;;23.13;15.63;;;;;;;-8.19;70.69;97236.75;5115251;28;20040;-72
2022/12/14 05:12:39;;;;;;;23.23;14.82;;;;;;;-6.30;70.95;97723.03;5097325;28;20060;-72
2022/12/14 05:15:10;;;;;;;20.35;14.52;;;;;;;-3.25;71.49;98341.38;5114453;28;20353;-72
2022/12/14 05:17:39;;;;;;;22.02;14.13;;;;;;;-2.72;71.01;98192.63;5114388;28;20039;-72
2022/12/14 05:20:15;;;;;;;20.38;14.23;;;;;;;-2.74;71.80;98192.66;5097661;28;20119;-71
2022/12/14 05:22:47;;;;;;;19.73;14.43;;;;;;;-2.73;71.50;98194.38;5114209;28;20052;-72
2022/12/14 05:25:17;;;;;;;19.20;13.73;;;;;;;-4.69;71.19;97846.06;5114193;28;20067;-72
2022/12/14 05:27:47;;;;;;;18.15;13.55;;;;;;;-2.69;71.48;98174.41;5113460;28;20071;-71
2022/12/14 05:30:16;;;;;;;22.13;15.70;;;;;;;-9.34;70.95;97064.63;5113515;28;20227;-71
2022/12/14 05:32:44;;;;;;;22.92;15.23;;;;;;;-6.25;70.86;97561.38;5112362;28;20048;-70
2022/12/14 05:35:13;;;;;;;19.30;14.25;;;;;;;-3.59;71.22;98005.22;5112097;28;20070;-71
2022/12/14 05:37:45;;;;;;;23.10;15.27;;;;;;;-3.33;72.01;98393.31;5111175;28;20055;-72
2022/12/14 05:40:14;;;;;;;22.75;15.48;;;;;;;-5.96;72.20;97633.13;5111939;28;20290;-71
2022/12/14 05:42:41;;;;;;;22.00;17.02;;;;;;;-4.71;72.15;97899.50;5111110;28;20326;-71
2022/12/14 05:45:11;;;;;;;20.02;14.45;;;;;;;-6.01;71.78;97890.28;5112095;28;20050;-71
2022/12/14 05:47:39;;;;;;;20.33;14.32;;;;;;;-4.67;71.25;97831.38;5110946;28;20126;-71
2022/12/14 05:50:08;;;;;;;22.73;15.27;;;;;;;-2.61;71.44;98169.91;5111301;28;20101;-71
2022/12/14 05:52:36;;;;;;;22.40;16.30;;;;;;;-5.25;71.29;97726.50;5111611;28;20361;-71
2022/12/14 05:55:05;;;;;;;22.50;16.02;;;;;;;-10.65;71.22;96818.63;5110328;28;20048;-71
2022/12/14 05:57:32;;;;;;;27.17;17.35;;;;;;;-2.60;72.37;98196.69;5111523;28;20044;-71
2022/12/14 05:59:59;;;;;;;23.25;15.77;;;;;;;-2.87;72.14;98224.91;5112169;28;20040;-71
2022/12/14 06:02:28;;;;;;;21.80;14.77;;;;;;;-2.62;72.44;98184.63;5112088;28;20032;-71
2022/12/14 06:04:56;;;;;;;24.55;15.25;;;;;;;-11.89;70.67;96672.56;5095453;28;20115;-71
2022/12/14 06:07:22;;;;;;;23.65;15.77;;;;;;;-2.57;71.75;98173.28;5111770;28;20063;-70
2022/12/14 06:09:52;;;;;;;21.98;16.63;;;;;;;-8.75;71.89;97145.94;5111087;28;20131;-71
2022/12/14 06:12:26;;;;;;;22.77;15.10;;;;;;;-2.58;72.23;98194.94;5111749;28;20089;-71
2022/12/14 06:14:53;;;;;;;23.70;16.13;;;;;;;-2.58;72.50;98192.34;5111634;28;20058;-71
2022/12/14 06:17:22;;;;;;;24.48;17.10;;;;;;;-14.28;70.78;96215.97;5111677;28;20038;-71
2022/12/14 06:19:50;;;;;;;24.25;16.20;;;;;;;-5.66;71.06;97722.91;5112602;28;20044;-71
2022/12/14 06:22:18;;;;;;;23.88;16.58;;;;;;;-2.54;72.23;98353.09;5112632;28;20115;-70
2022/12/14 06:24:47;;;;;;;24.35;17.20;;;;;;;-2.55;72.31;98181.91;5112304;28;20032;-71
2022/12/14 06:27:14;;;;;;;32.00;17.85;;;;;;;-5.77;71.35;97654.31;5112353;28;20052;-71
2022/12/14 06:29:44;;;;;;;26.88;18.35;;;;;;;-6.89;72.02;97459.41;5112157;28;20330;-70
2022/12/14 06:32:10;;;;;;;24.58;16.58;;;;;;;-11.62;70.87;97101.59;5112042;28;20040;-71
2022/12/14 06:34:39;;;;;;;23.35;18.25;;;;;;;-2.51;71.57;98173.16;5112252;28;20072;-71
2022/12/14 06:37:07;;;;;;;26.85;17.63;;;;;;;-2.50;71.81;98173.13;5111361;28;20044;-71
2022/12/14 06:39:35;;;;;;;25.42;17.77;;;;;;;-2.47;71.86;98161.81;5112510;28;20058;-71
2022/12/14 06:42:03;;;;;;;25.58;17.00;;;;;;;-4.81;71.26;97754.09;5095460;28;20050;-72
2022/12/14 06:44:30;;;;;;;25.95;16.38;;;;;;;-11.72;70.35;96607.66;5111953;28;20215;-71
2022/12/14 06:47:00;;;;;;;25.10;16.85;;;;;;;-8.19;71.06;97193.91;5112668;28;20048;-71
2022/12/14 06:49:27;;;;;;;26.98;17.27;;;;;;;-2.45;71.61;98153.13;5112169;28;20040;-72
2022/12/14 06:51:54;;;;;;;25.88;17.92;;;;;;;-2.44;71.46;98146.19;5112726;28;20292;-72
2022/12/14 06:54:21;;;;;;;25.15;17.17;;;;;;;-2.44;71.51;98143.59;5112542;28;20060;-73
2022/12/14 06:56:49;;;;;;;21.35;14.77;;;;;;;-2.42;71.44;98145.28;5112444;28;20044;-73
2022/12/14 06:59:16;;;;;;;24.73;15.45;;;;;;;-2.41;70.51;98224.81;5113730;28;20039;-73
2022/12/14 07:01:44;;;;;;;25.95;16.85;;;;;;;-2.40;71.44;98140.91;5117455;28;20048;-71
2022/12/14 07:04:13;;;;;;;22.58;17.52;;;;;;;-2.42;71.33;98160.84;5116507;28;20060;-70
2022/12/14 07:06:41;;;;;;;23.67;18.08;;;;;;;-5.11;71.16;98013.84;5115714;28;20048;-71
2022/12/14 07:09:11;;;;;;;24.15;16.80;;;;;;;-4.34;71.74;97822.09;5116408;28;20036;-71
2022/12/14 07:11:38;;;;;;;23.38;16.58;;;;;;;-2.40;70.96;98129.66;5116681;28;20036;-71
2022/12/14 07:14:06;;;;;;;24.63;17.40;;;;;;;-2.44;71.48;98122.84;5098449;28;20246;-71
2022/12/14 07:16:35;;;;;;;23.50;16.60;;;;;;;-6.61;70.73;97726.03;5115869;28;20116;-70
2022/12/14 07:19:03;;;;;;;25.05;16.83;;;;;;;-2.43;71.14;98115.03;5115302;28;20292;-72
2022/12/14 07:21:32;;;;;;;22.73;15.98;;;;;;;-2.47;71.92;98100.41;5115503;28;20103;-71
2022/12/14 07:24:02;;;;;;;25.13;16.50;;;;;;;-10.54;70.85;96846.66;5116240;28;20046;-70
2022/12/14 07:26:30;;;;;;;25.20;15.77;;;;;;;-3.42;71.27;97953.91;5115356;28;20062;-71
2022/12/14 07:29:00;;;;;;;22.88;16.20;;;;;;;-2.42;71.34;98119.31;5115417;28;20050;-71
2022/12/14 07:31:29;;;;;;;23.85;16.00;;;;;;;-5.46;70.77;97613.28;5115568;28;20040;-71
2022/12/14 07:33:57;;;;;;;21.00;15.02;;;;;;;-9.36;70.63;96956.09;5115183;28;20058;-71
2022/12/14 07:36:31;;;;;;;23.13;15.63;;;;;;;-7.28;71.05;97733.72;5115457;28;20048;-71
2022/12/14 07:38:59;;;;;;;21.60;15.30;;;;;;;-2.43;71.62;98130.59;5115957;28;20048;-71
2022/12/14 07:41:31;;;;;;;21.63;15.90;;;;;;;-2.43;71.44;98153.09;5115633;28;20044;-71
2022/12/14 07:44:00;;;;;;;24.63;16.52;;;;;;;-5.57;71.42;97636.72;5116335;28;20048;-71
2022/12/14 07:46:29;;;;;;;21.30;14.85;;;;;;;-2.44;71.72;98131.47;5114954;28;20063;-71
2022/12/14 07:48:57;;;;;;;21.80;14.55;;;;;;;-3.57;71.23;97992.25;5115992;28;20040;-71
2022/12/14 07:51:28;;;;;;;23.33;15.68;;;;;;;-2.42;71.78;98149.59;5115502;28;20119;-70
2022/12/14 07:53:56;;;;;;;23.30;15.13;;;;;;;-3.15;71.24;98008.63;5115355;28;20075;-70
2022/12/14 07:56:29;;;;;;;19.25;13.73;;;;;;;-4.38;71.21;97802.34;5115002;28;20039;-71
2022/12/14 07:59:01;;;;;;;22.23;14.70;;;;;;;-3.97;71.62;97894.66;5114852;28;20047;-71
2022/12/14 08:01:32;;;;;;;20.40;14.73;;;;;;;-2.36;71.78;98136.50;5097331;28;20809;-72
2022/12/14 08:04:02;;;;;;;25.80;15.27;;;;;;;-2.37;71.31;98143.41;5114062;28;20071;-71
2022/12/14 08:06:30;;;;;;;23.27;15.00;;;;;;;-4.69;71.53;98058.03;5114450;28;20119;-71
2022/12/14 08:08:58;;;;;;;19.42;14.02;;;;;;;-2.34;71.40;98151.13;5115353;28;20043;-71
2022/12/14 08:11:28;;;;;;;22.20;14.93;;;;;;;-4.97;71.73;98204.84;5081948;28;20048;-70
2022/12/14 08:13:55;;;;;;;25.52;15.38;;;;;;;-6.40;71.36;97471.41;5115334;28;20266;-71
2022/12/14 08:16:23;;;;;;;22.70;15.70;;;;;;;-3.62;71.68;97931.00;5115322;28;20044;-70
2022/12/14 08:18:55;;;;;;;22.45;15.27;;;;;;;-2.35;71.96;98120.88;5114039;28;20067;-71
2022/12/14 08:21:23;;;;;;;22.20;14.73;;;;;;;-8.13;71.20;97365.16;5114380;28;20111;-71
2022/12/14 08:23:55;;;;;;;23.92;14.85;;;;;;;-2.33;71.58;98116.50;5114608;28;20040;-71
2022/12/14 08:26:25;;;;;;;24.83;15.70;;;;;;;-2.35;71.80;98135.59;5097597;28;20061;-71
2022/12/14 08:28:55;;;;;;;19.27;14.45;;;;;;;-2.33;71.41;98131.22;5113194;28;20066;-71
2022/12/14 08:31:27;;;;;;;24.15;16.13;;;;;;;-4.24;70.68;97836.53;5113365;28;20123;-71
2022/12/14 08:33:55;;;;;;;22.10;14.18;;;;;;;-2.93;71.42;98029.72;5113451;28;20043;-70
2022/12/14 08:36:25;;;;;;;25.25;15.93;;;;;;;-5.71;71.44;97558.72;5112465;28;20044;-71
2022/12/14 08:38:55;;;;;;;22.48;16.80;;;;;;;-2.28;71.45;98139.75;5113427;28;20318;-70
2022/12/14 08:41:25;;;;;;;20.80;15.95;;;;;;;-2.99;71.50;98028.97;5112616;28;20066;-70
2022/12/14 08:43:56;;;;;;;24.77;15.43;;;;;;;-2.82;71.20;98134.06;5112931;28;20040;-71
2022/12/14 08:46:27;;;;;;;26.52;18.33;;;;;;;-3.37;71.35;97948.63;5114740;28;20040;-71
2022/12/14 08:48:55;;;;;;;21.60;15.32;;;;;;;-2.26;71.59;98130.19;5113441;28;20032;-71
2022/12/14 08:51:24;;;;;;;24.33;16.75;;;;;;;-2.24;71.79;98179.47;5113281;28;20040;-70
2022/12/14 08:53:53;;;;;;;22.65;15.35;;;;;;;-13.22;70.76;96288.75;5113410;28;20044;-71
2022/12/14 08:56:25;;;;;;;23.38;16.38;;;;;;;-4.10;71.59;97831.09;5112867;28;20035;-71
2022/12/14 08:58:57;;;;;;;27.42;18.42;;;;;;;-5.05;71.07;97657.22;5112756;28;20040;-71
2022/12/14 09:01:27;;;;;;;25.85;17.58;;;;;;;-4.99;71.36;97659.69;5112821;28;20036;-71
2022/12/14 09:03:55;;;;;;;24.08;16.08;;;;;;;-7.32;71.16;97294.50;5112558;28;20048;-71
2022/12/14 09:06:26;;;;;;;24.08;17.33;;;;;;;-4.22;71.52;97961.53;5112019;28;20047;-71
2022/12/14 09:08:54;;;;;;;24.85;15.65;;;;;;;-4.69;71.40;97753.84;5111954;28;20070;-71
2022/12/14 09:11:22;;;;;;;25.40;17.02;;;;;;;-2.18;71.89;98135.22;5112630;28;20040;-71
2022/12/14 09:13:53;;;;;;;23.83;15.68;;;;;;;-9.92;71.16;96837.28;5112437;28;20047;-71
2022/12/14 09:16:23;;;;;;;22.33;15.85;;;;;;;-2.19;71.91;98115.34;5112624;28;20050;-71
2022/12/14 09:18:50;;;;;;;24.77;15.02;;;;;;;-2.19;71.81;98112.75;5112531;28;20036;-71
2022/12/14 09:21:17;;;;;;;21.60;15.50;;;;;;;-2.17;71.28;98139.50;5111840;28;20062;-71
2022/12/14 09:23:45;;;;;;;27.10;15.70;;;;;;;-2.17;71.89;98101.44;5094612;28;20180;-71
2022/12/14 09:26:14;;;;;;;25.92;16.73;;;;;;;-2.14;71.81;98109.16;5111258;28;20044;-71
2022/12/14 09:28:44;;;;;;;28.48;17.27;;;;;;;-9.31;71.18;97029.50;5111400;28;20075;-71
2022/12/14 09:31:16;;;;;;;26.77;18.10;;;;;;;-2.11;71.42;98100.44;5112248;28;20066;-70
2022/12/14 09:33:46;;;;;;;25.70;17.67;;;;;;;-2.10;71.83;98229.34;5111848;28;20131;-71
2022/12/14 09:36:16;;;;;;;23.83;17.17;;;;;;;-4.75;70.82;97766.88;5111443;28;20082;-71
2022/12/14 09:38:44;;;;;;;26.17;16.58;;;;;;;-4.83;71.25;97633.53;5111297;28;20093;-71
2022/12/14 09:41:27;;;;;;;25.30;15.75;;;;;;;-6.61;71.59;97645.28;5111428;28;20032;-71
2022/12/14 09:44:02;;;;;;;26.20;18.23;;;;;;;-2.07;71.69;98061.38;5111196;28;20044;-71
2022/12/14 09:46:44;;;;;;;27.33;19.58;;;;;;;-2.05;71.61;98057.00;5110736;28;20220;-71
2022/12/14 09:49:26;;;;;;;24.38;16.90;;;;;;;-2.15;71.67;98028.72;5110763;28;20063;-71
2022/12/14 09:51:59;;;;;;;23.20;16.83;;;;;;;-3.88;71.18;97741.75;5111007;28;20044;-71
2022/12/14 09:54:28;;;;;;;25.45;17.65;;;;;;;-2.57;71.64;97955.41;5110605;28;20048;-71
2022/12/14 09:57:01;;;;;;;26.08;15.63;;;;;;;-2.00;71.37;98059.47;5110833;28;20039;-71
2022/12/14 09:59:32;;;;;;;26.58;18.80;;;;;;;-2.00;71.81;98049.09;5110631;28;20127;-72
2022/12/14 10:02:24;;;;;;;25.15;16.92;;;;;;;-1.99;71.68;98084.56;5110665;28;20066;-71
2022/12/14 10:05:05;;;;;;;26.52;17.08;;;;;;;-2.90;71.65;97871.50;5110609;28;20040;-71
2022/12/14 10:07:43;;;;;;;31.38;18.67;;;;;;;-1.98;71.28;98026.53;5110883;28;20067;-71
2022/12/14 10:10:25;;;;;;;25.30;17.75;;;;;;;-1.98;71.77;98026.53;5110702;28;20071;-71
2022/12/14 10:13:06;;;;;;;29.50;18.50;;;;;;;-1.94;71.57;98029.91;5110872;28;20051;-71
2022/12/14 10:15:39;;;;;;;27.88;18.85;;;;;;;-1.93;71.46;98032.47;5110643;28;20315;-71
2022/12/14 10:18:23;;;;;;;25.65;17.30;;;;;;;-1.92;71.47;98028.97;5077825;28;20043;-71
2022/12/14 10:21:01;;;;;;;24.38;16.52;;;;;;;-4.16;70.73;97658.72;5109997;28;20060;-71
2022/12/14 10:23:30;;;;;;;27.10;18.55;;;;;;;-1.87;71.01;98019.31;5110034;28;20044;-71
2022/12/14 10:26:06;;;;;;;24.45;18.05;;;;;;;-3.84;70.81;97739.94;5094168;28;20044;-72
2022/12/14 10:28:45;;;;;;;24.65;17.65;;;;;;;-1.87;71.61;98014.13;5111493;28;20044;-71
2022/12/14 10:31:16;;;;;;;24.42;17.77;;;;;;;-2.01;71.11;97980.72;5110560;28;20069;-72
2022/12/14 10:33:46;;;;;;;29.13;18.48;;;;;;;-1.80;71.29;98004.41;5111689;28;20032;-71
2022/12/14 10:36:25;;;;;;;26.35;17.52;;;;;;;-1.80;71.37;98014.81;5110005;28;20070;-72
2022/12/14 10:38:59;;;;;;;28.27;19.83;;;;;;;-1.81;71.27;97992.31;5111375;28;20104;-71
2022/12/14 10:41:38;;;;;;;25.67;17.02;;;;;;;-4.34;71.22;97863.47;5110588;28;20120;-71
2022/12/14 10:44:18;;;;;;;24.88;18.05;;;;;;;-3.80;71.23;97744.16;5110766;28;20052;-72
2022/12/14 10:46:52;;;;;;;27.23;18.98;;;;;;;-2.46;71.18;97919.66;5110710;28;20044;-72
2022/12/14 10:49:30;;;;;;;26.25;18.17;;;;;;;-1.78;71.22;97966.28;5093407;28;20047;-72
2022/12/14 10:52:03;;;;;;;26.08;18.40;;;;;;;-9.69;70.79;96649.81;5112170;28;20040;-73
2022/12/14 10:54:36;;;;;;;26.23;17.52;;;;;;;-1.77;71.01;97963.63;5110297;28;20048;-72
2022/12/14 10:57:03;;;;;;;27.67;16.98;;;;;;;-1.79;71.34;97955.03;5111363;28;20058;-72
2022/12/14 10:59:35;;;;;;;25.60;17.75;;;;;;;-5.11;71.23;97393.03;5110267;28;20036;-73
2022/12/14 11:02:06;;;;;;;24.33;17.88;;;;;;;-1.79;71.45;97943.78;5110203;28;20052;-71
2022/12/14 11:04:37;;;;;;;26.13;19.50;;;;;;;-1.77;71.15;97942.00;5110573;28;20058;-71
2022/12/14 11:07:08;;;;;;;29.75;20.50;;;;;;;-1.76;71.57;97938.50;5111807;28;20055;-72
2022/12/14 11:09:37;;;;;;;26.63;18.33;;;;;;;-1.75;71.44;97938.47;5110328;28;20060;-72
2022/12/14 11:12:08;;;;;;;28.15;19.27;;;;;;;-10.65;70.58;96464.59;5111745;28;20047;-72
2022/12/14 11:14:40;;;;;;;25.98;17.55;;;;;;;-8.89;70.90;96766.19;5110981;28;20070;-72
2022/12/14 11:17:36;;;;;;;29.88;18.70;;;;;;;-1.70;71.59;97913.22;5112499;28;20066;-72
2022/12/14 11:20:16;;;;;;;29.38;19.83;;;;;;;-1.70;71.44;97965.16;5111430;28;20044;-72
2022/12/14 11:22:44;;;;;;;29.90;19.73;;;;;;;-1.72;71.42;97937.53;5111634;28;20074;-72
2022/12/14 11:25:29;;;;;;;27.70;19.33;;;;;;;-7.54;71.06;96933.84;5111150;28;20044;-72
2022/12/14 11:27:59;;;;;;;30.08;20.50;;;;;;;-1.70;71.42;97908.00;5109663;28;20139;-71
2022/12/14 11:30:31;;;;;;;29.42;19.92;;;;;;;-6.26;70.94;97132.56;5111072;28;20044;-72
2022/12/14 11:33:00;;;;;;;28.50;19.00;;;;;;;-1.97;71.30;97867.25;5111525;28;20036;-72
2022/12/14 11:35:29;;;;;;;27.05;18.98;;;;;;;-1.61;70.76;97890.47;5110239;28;20036;-71
2022/12/14 11:38:00;;;;;;;30.05;21.10;;;;;;;-3.04;71.14;97643.78;5109828;28;20063;-71
2022/12/14 11:40:27;;;;;;;25.98;17.60;;;;;;;-1.57;71.09;97892.06;5109571;28;20044;-71
2022/12/14 11:43:03;;;;;;;28.27;18.27;;;;;;;-2.18;71.21;97784.81;5092691;28;20036;-70
2022/12/14 11:45:36;;;;;;;34.33;20.63;;;;;;;-1.54;70.80;97890.22;5108918;28;20043;-71
2022/12/14 11:48:22;;;;;;;29.35;18.70;;;;;;;-12.42;69.78;96251.13;5095693;28;20055;-71
2022/12/14 11:50:51;;;;;;;30.30;21.15;;;;;;;-1.56;70.87;97878.19;5113026;28;20043;-72
2022/12/14 11:53:22;;;;;;;27.60;18.95;;;;;;;-3.23;70.63;97652.94;5113570;28;20383;-73